sensor_id;sensor_type;location;lat;lon;timestamp;P1;durP1;ratioP1;P2;durP2;ratioP2
54452;SDS011;40363;52.270;10.546;2024-03-07T00:00:00;23.50;;;12.60;;
54452;SDS011;40363;52.270;10.546;2024-03-07T00:02:29;23.65;;;13.18;;
54452;SDS011;40363;52.270;10.546;2024-03-07T00:04:55;20.08;;;12.65;;
54452;SDS011;40363;52.270;10.546;2024-03-07T00:07:25;19.77;;;11.05;;
54452;SDS011;40363;52.270;10.546;2024-03-07T00:09:51;23.48;;;11.77;;
54452;SDS011;40363;52.270;10.546;2024-03-07T00:12:18;25.63;;;13.15;;
54452;SDS011;40363;52.270;10.546;2024-03-07T00:14:46;21.13;;;12.50;;
54452;SDS011;40363;52.270;10.546;2024-03-07T00:17:13;23.13;;;13.95;;
54452;SDS011;40363;52.270;10.546;2024-03-07T00:19:40;19.42;;;11.10;;
54452;SDS011;40363;52.270;10.546;2024-03-07T00:22:05;26.85;;;13.35;;
54452;SDS011;40363;52.270;10.546;2024-03-07T00:24:32;23.33;;;12.77;;
54452;SDS011;40363;52.270;10.546;2024-03-07T00:26:58;23.27;;;12.85;;
54452;SDS011;40363;52.270;10.546;2024-03-07T00:29:25;22.65;;;12.88;;
54452;SDS011;40363;52.270;10.546;2024-03-07T00:31:54;18.17;;;11.75;;
54452;SDS011;40363;52.270;10.546;2024-03-07T00:34:21;20.63;;;11.88;;
54452;SDS011;40363;52.270;10.546;2024-03-07T00:36:48;24.23;;;12.30;;
54452;SDS011;40363;52.270;10.546;2024-03-07T00:39:14;23.63;;;13.00;;
54452;SDS011;40363;52.270;10.546;2024-03-07T00:41:41;22.67;;;11.88;;
54452;SDS011;40363;52.270;10.546;2024-03-07T00:44:07;23.52;;;12.93;;
54452;SDS011;40363;52.270;10.546;2024-03-07T00:46:34;20.50;;;12.15;;
54452;SDS011;40363;52.270;10.546;2024-03-07T00:49:02;21.10;;;11.90;;
54452;SDS011;40363;52.270;10.546;2024-03-07T00:51:29;22.50;;;12.27;;
54452;SDS011;40363;52.270;10.546;2024-03-07T00:53:56;23.17;;;11.45;;
54452;SDS011;40363;52.270;10.546;2024-03-07T00:56:23;24.55;;;13.20;;
54452;SDS011;40363;52.270;10.546;2024-03-07T00:58:49;23.45;;;11.77;;
54452;SDS011;40363;52.270;10.546;2024-03-07T01:01:16;21.38;;;11.40;;
54452;SDS011;40363;52.270;10.546;2024-03-07T01:03:44;19.30;;;11.95;;
54452;SDS011;40363;52.270;10.546;2024-03-07T01:06:12;22.50;;;11.35;;
54452;SDS011;40363;52.270;10.546;2024-03-07T01:08:38;21.88;;;11.98;;
54452;SDS011;40363;52.270;10.546;2024-03-07T01:11:05;23.58;;;12.77;;
54452;SDS011;40363;52.270;10.546;2024-03-07T01:13:34;19.73;;;11.20;;
54452;SDS011;40363;52.270;10.546;2024-03-07T01:16:01;21.60;;;11.93;;
54452;SDS011;40363;52.270;10.546;2024-03-07T01:18:28;24.45;;;11.82;;
54452;SDS011;40363;52.270;10.546;2024-03-07T01:20:55;21.67;;;12.35;;
54452;SDS011;40363;52.270;10.546;2024-03-07T01:23:24;23.48;;;13.02;;
54452;SDS011;40363;52.270;10.546;2024-03-07T01:25:55;23.67;;;12.38;;
54452;SDS011;40363;52.270;10.546;2024-03-07T01:28:22;22.25;;;13.02;;
54452;SDS011;40363;52.270;10.546;2024-03-07T01:30:48;18.85;;;11.88;;
54452;SDS011;40363;52.270;10.546;2024-03-07T01:33:15;21.15;;;12.25;;
54452;SDS011;40363;52.270;10.546;2024-03-07T01:35:41;21.77;;;11.93;;
54452;SDS011;40363;52.270;10.546;2024-03-07T01:38:08;20.50;;;11.77;;
54452;SDS011;40363;52.270;10.546;2024-03-07T01:40:37;20.80;;;11.63;;
54452;SDS011;40363;52.270;10.546;2024-03-07T01:43:03;21.38;;;11.98;;
54452;SDS011;40363;52.270;10.546;2024-03-07T01:45:30;23.55;;;12.07;;
54452;SDS011;40363;52.270;10.546;2024-03-07T01:47:57;18.30;;;10.70;;
54452;SDS011;40363;52.270;10.546;2024-03-07T01:50:23;22.05;;;11.80;;
54452;SDS011;40363;52.270;10.546;2024-03-07T01:52:50;21.90;;;11.00;;
54452;SDS011;40363;52.270;10.546;2024-03-07T01:55:20;20.20;;;11.13;;
54452;SDS011;40363;52.270;10.546;2024-03-07T01:57:49;23.10;;;10.70;;
54452;SDS011;40363;52.270;10.546;2024-03-07T02:00:15;21.20;;;11.38;;
54452;SDS011;40363;52.270;10.546;2024-03-07T02:02:43;20.02;;;9.82;;
54452;SDS011;40363;52.270;10.546;2024-03-07T02:05:10;19.67;;;11.55;;
54452;SDS011;40363;52.270;10.546;2024-03-07T02:07:37;21.75;;;10.90;;
54452;SDS011;40363;52.270;10.546;2024-03-07T02:10:04;22.17;;;10.77;;
54452;SDS011;40363;52.270;10.546;2024-03-07T02:12:34;18.92;;;9.88;;
54452;SDS011;40363;52.270;10.546;2024-03-07T02:15:02;20.70;;;11.18;;
54452;SDS011;40363;52.270;10.546;2024-03-07T02:17:29;20.05;;;10.98;;
54452;SDS011;40363;52.270;10.546;2024-03-07T02:19:57;19.63;;;11.48;;
54452;SDS011;40363;52.270;10.546;2024-03-07T02:22:25;18.67;;;10.73;;
54452;SDS011;40363;52.270;10.546;2024-03-07T02:24:52;17.38;;;10.88;;
54452;SDS011;40363;52.270;10.546;2024-03-07T02:27:19;21.10;;;11.35;;
54452;SDS011;40363;52.270;10.546;2024-03-07T02:29:45;20.58;;;10.15;;
54452;SDS011;40363;52.270;10.546;2024-03-07T02:32:12;19.05;;;10.80;;
54452;SDS011;40363;52.270;10.546;2024-03-07T02:34:39;19.83;;;11.27;;
54452;SDS011;40363;52.270;10.546;2024-03-07T02:37:06;18.10;;;11.50;;
54452;SDS011;40363;52.270;10.546;2024-03-07T02:39:35;19.25;;;10.13;;
54452;SDS011;40363;52.270;10.546;2024-03-07T02:42:02;18.98;;;10.82;;
54452;SDS011;40363;52.270;10.546;2024-03-07T02:44:28;20.20;;;11.15;;
54452;SDS011;40363;52.270;10.546;2024-03-07T02:46:56;18.85;;;10.93;;
54452;SDS011;40363;52.270;10.546;2024-03-07T02:49:23;16.90;;;10.60;;
54452;SDS011;40363;52.270;10.546;2024-03-07T02:51:49;15.65;;;9.65;;
54452;SDS011;40363;52.270;10.546;2024-03-07T02:54:19;15.05;;;9.48;;
54452;SDS011;40363;52.270;10.546;2024-03-07T02:56:47;20.95;;;11.27;;
54452;SDS011;40363;52.270;10.546;2024-03-07T02:59:14;18.35;;;10.73;;
54452;SDS011;40363;52.270;10.546;2024-03-07T03:01:41;19.55;;;10.43;;
54452;SDS011;40363;52.270;10.546;2024-03-07T03:04:08;18.83;;;10.00;;
54452;SDS011;40363;52.270;10.546;2024-03-07T03:06:34;22.63;;;12.60;;
54452;SDS011;40363;52.270;10.546;2024-03-07T03:09:01;15.55;;;9.82;;
54452;SDS011;40363;52.270;10.546;2024-03-07T03:11:32;18.05;;;9.90;;
54452;SDS011;40363;52.270;10.546;2024-03-07T03:14:06;20.23;;;11.25;;
54452;SDS011;40363;52.270;10.546;2024-03-07T03:16:38;17.30;;;10.45;;
54452;SDS011;40363;52.270;10.546;2024-03-07T03:19:08;16.45;;;10.68;;
54452;SDS011;40363;52.270;10.546;2024-03-07T03:21:35;18.95;;;10.63;;
54452;SDS011;40363;52.270;10.546;2024-03-07T03:24:01;20.40;;;10.75;;
54452;SDS011;40363;52.270;10.546;2024-03-07T03:26:28;18.00;;;10.32;;
54452;SDS011;40363;52.270;10.546;2024-03-07T03:28:56;20.77;;;11.45;;
54452;SDS011;40363;52.270;10.546;2024-03-07T03:31:24;18.00;;;9.68;;
54452;SDS011;40363;52.270;10.546;2024-03-07T03:33:50;21.45;;;11.27;;
54452;SDS011;40363;52.270;10.546;2024-03-07T03:36:17;22.25;;;11.20;;
54452;SDS011;40363;52.270;10.546;2024-03-07T03:38:44;19.80;;;9.52;;
54452;SDS011;40363;52.270;10.546;2024-03-07T03:41:14;16.90;;;9.68;;
54452;SDS011;40363;52.270;10.546;2024-03-07T03:43:41;17.13;;;9.80;;
54452;SDS011;40363;52.270;10.546;2024-03-07T03:46:09;19.38;;;10.00;;
54452;SDS011;40363;52.270;10.546;2024-03-07T03:48:37;16.50;;;10.85;;
54452;SDS011;40363;52.270;10.546;2024-03-07T03:51:06;20.15;;;9.95;;
54452;SDS011;40363;52.270;10.546;2024-03-07T03:53:33;16.85;;;9.18;;
54452;SDS011;40363;52.270;10.546;2024-03-07T03:56:00;22.13;;;10.30;;
54452;SDS011;40363;52.270;10.546;2024-03-07T03:58:26;20.02;;;10.50;;
54452;SDS011;40363;52.270;10.546;2024-03-07T04:00:53;21.85;;;10.50;;
54452;SDS011;40363;52.270;10.546;2024-03-07T04:03:20;18.70;;;10.25;;
54452;SDS011;40363;52.270;10.546;2024-03-07T04:05:48;18.33;;;10.23;;
54452;SDS011;40363;52.270;10.546;2024-03-07T04:08:14;16.48;;;9.63;;
54452;SDS011;40363;52.270;10.546;2024-03-07T04:10:41;21.92;;;11.52;;
54452;SDS011;40363;52.270;10.546;2024-03-07T04:13:07;16.90;;;9.02;;
54452;SDS011;40363;52.270;10.546;2024-03-07T04:15:34;19.83;;;10.20;;
54452;SDS011;40363;52.270;10.546;2024-03-07T04:18:00;19.95;;;10.57;;
54452;SDS011;40363;52.270;10.546;2024-03-07T04:20:27;22.45;;;11.50;;
54452;SDS011;40363;52.270;10.546;2024-03-07T04:22:55;23.65;;;12.80;;
54452;SDS011;40363;52.270;10.546;2024-03-07T04:25:22;21.38;;;11.35;;
54452;SDS011;40363;52.270;10.546;2024-03-07T04:27:50;21.95;;;11.35;;
54452;SDS011;40363;52.270;10.546;2024-03-07T04:30:16;27.27;;;12.10;;
54452;SDS011;40363;52.270;10.546;2024-03-07T04:32:45;28.80;;;12.15;;
54452;SDS011;40363;52.270;10.546;2024-03-07T04:35:11;25.75;;;11.75;;
54452;SDS011;40363;52.270;10.546;2024-03-07T04:37:38;24.83;;;14.15;;
54452;SDS011;40363;52.270;10.546;2024-03-07T04:40:07;27.92;;;12.65;;
54452;SDS011;40363;52.270;10.546;2024-03-07T04:42:41;29.60;;;13.85;;
54452;SDS011;40363;52.270;10.546;2024-03-07T04:45:08;24.45;;;11.73;;
54452;SDS011;40363;52.270;10.546;2024-03-07T04:47:38;28.35;;;12.77;;
54452;SDS011;40363;52.270;10.546;2024-03-07T04:50:05;20.30;;;11.63;;
54452;SDS011;40363;52.270;10.546;2024-03-07T04:52:32;27.42;;;13.07;;
54452;SDS011;40363;52.270;10.546;2024-03-07T04:54:59;29.75;;;14.02;;
54452;SDS011;40363;52.270;10.546;2024-03-07T04:57:27;34.55;;;14.93;;
54452;SDS011;40363;52.270;10.546;2024-03-07T04:59:54;31.98;;;14.38;;
54452;SDS011;40363;52.270;10.546;2024-03-07T05:02:20;35.92;;;15.90;;
54452;SDS011;40363;52.270;10.546;2024-03-07T05:04:48;38.45;;;16.63;;
54452;SDS011;40363;52.270;10.546;2024-03-07T05:07:16;32.97;;;17.38;;
54452;SDS011;40363;52.270;10.546;2024-03-07T05:09:43;36.85;;;16.52;;
54452;SDS011;40363;52.270;10.546;2024-03-07T05:12:10;43.80;;;18.77;;
54452;SDS011;40363;52.270;10.546;2024-03-07T05:14:38;44.33;;;17.30;;
54452;SDS011;40363;52.270;10.546;2024-03-07T05:17:05;44.83;;;17.88;;
54452;SDS011;40363;52.270;10.546;2024-03-07T05:19:33;43.47;;;18.27;;
54452;SDS011;40363;52.270;10.546;2024-03-07T05:22:00;49.40;;;17.65;;
54452;SDS011;40363;52.270;10.546;2024-03-07T05:24:27;46.78;;;17.63;;
54452;SDS011;40363;52.270;10.546;2024-03-07T05:26:54;44.33;;;17.45;;
54452;SDS011;40363;52.270;10.546;2024-03-07T05:29:21;37.60;;;16.83;;
54452;SDS011;40363;52.270;10.546;2024-03-07T05:31:49;41.97;;;17.67;;
54452;SDS011;40363;52.270;10.546;2024-03-07T05:34:16;49.53;;;18.17;;
54452;SDS011;40363;52.270;10.546;2024-03-07T05:36:44;49.20;;;18.55;;
54452;SDS011;40363;52.270;10.546;2024-03-07T05:39:11;48.50;;;17.25;;
54452;SDS011;40363;52.270;10.546;2024-03-07T05:41:38;48.85;;;18.48;;
54452;SDS011;40363;52.270;10.546;2024-03-07T05:44:05;60.47;;;20.00;;
54452;SDS011;40363;52.270;10.546;2024-03-07T05:46:34;51.35;;;20.35;;
54452;SDS011;40363;52.270;10.546;2024-03-07T05:49:03;54.05;;;18.40;;
54452;SDS011;40363;52.270;10.546;2024-03-07T05:51:29;49.38;;;19.10;;
54452;SDS011;40363;52.270;10.546;2024-03-07T05:53:57;47.88;;;20.70;;
54452;SDS011;40363;52.270;10.546;2024-03-07T05:56:23;59.60;;;21.08;;
54452;SDS011;40363;52.270;10.546;2024-03-07T05:58:50;57.47;;;19.98;;
54452;SDS011;40363;52.270;10.546;2024-03-07T06:01:18;55.17;;;20.05;;
54452;SDS011;40363;52.270;10.546;2024-03-07T06:03:45;55.67;;;20.42;;
54452;SDS011;40363;52.270;10.546;2024-03-07T06:06:15;57.40;;;22.65;;
54452;SDS011;40363;52.270;10.546;2024-03-07T06:08:41;51.65;;;21.70;;
54452;SDS011;40363;52.270;10.546;2024-03-07T06:11:09;52.72;;;20.83;;
54452;SDS011;40363;52.270;10.546;2024-03-07T06:13:36;58.33;;;21.42;;
54452;SDS011;40363;52.270;10.546;2024-03-07T06:16:03;58.50;;;22.77;;
54452;SDS011;40363;52.270;10.546;2024-03-07T06:18:32;61.28;;;21.45;;
54452;SDS011;40363;52.270;10.546;2024-03-07T07:38:39;65.10;;;20.95;;
54452;SDS011;40363;52.270;10.546;2024-03-07T07:41:06;63.80;;;19.65;;
54452;SDS011;40363;52.270;10.546;2024-03-07T07:43:33;55.33;;;20.38;;
54452;SDS011;40363;52.270;10.546;2024-03-07T07:46:00;62.53;;;21.95;;
54452;SDS011;40363;52.270;10.546;2024-03-07T07:48:27;63.92;;;21.30;;
54452;SDS011;40363;52.270;10.546;2024-03-07T07:50:54;66.82;;;23.08;;
54452;SDS011;40363;52.270;10.546;2024-03-07T07:53:20;49.65;;;19.63;;
54452;SDS011;40363;52.270;10.546;2024-03-07T07:55:48;55.50;;;20.52;;
54452;SDS011;40363;52.270;10.546;2024-03-07T07:58:16;60.30;;;20.80;;
54452;SDS011;40363;52.270;10.546;2024-03-07T08:00:43;70.00;;;21.75;;
54452;SDS011;40363;52.270;10.546;2024-03-07T08:03:10;66.90;;;22.08;;
54452;SDS011;40363;52.270;10.546;2024-03-07T08:05:37;58.55;;;20.38;;
54452;SDS011;40363;52.270;10.546;2024-03-07T08:08:04;59.08;;;22.42;;
54452;SDS011;40363;52.270;10.546;2024-03-07T08:10:32;70.70;;;20.38;;
54452;SDS011;40363;52.270;10.546;2024-03-07T08:13:02;59.25;;;18.67;;
54452;SDS011;40363;52.270;10.546;2024-03-07T08:15:31;62.45;;;22.05;;
54452;SDS011;40363;52.270;10.546;2024-03-07T08:17:58;68.80;;;23.98;;
54452;SDS011;40363;52.270;10.546;2024-03-07T08:20:26;69.43;;;23.52;;
54452;SDS011;40363;52.270;10.546;2024-03-07T08:22:53;64.85;;;21.27;;
54452;SDS011;40363;52.270;10.546;2024-03-07T08:25:21;61.58;;;21.42;;
54452;SDS011;40363;52.270;10.546;2024-03-07T08:27:49;65.70;;;20.13;;
54452;SDS011;40363;52.270;10.546;2024-03-07T08:30:19;63.30;;;22.48;;
54452;SDS011;40363;52.270;10.546;2024-03-07T08:32:46;62.55;;;22.77;;
54452;SDS011;40363;52.270;10.546;2024-03-07T08:35:14;48.50;;;20.52;;
54452;SDS011;40363;52.270;10.546;2024-03-07T08:37:41;61.47;;;20.67;;
54452;SDS011;40363;52.270;10.546;2024-03-07T08:40:10;61.10;;;19.00;;
54452;SDS011;40363;52.270;10.546;2024-03-07T08:42:44;63.47;;;21.42;;
54452;SDS011;40363;52.270;10.546;2024-03-07T08:45:12;62.35;;;21.30;;
54452;SDS011;40363;52.270;10.546;2024-03-07T08:47:45;52.05;;;18.77;;
54452;SDS011;40363;52.270;10.546;2024-03-07T08:50:13;53.42;;;19.23;;
54452;SDS011;40363;52.270;10.546;2024-03-07T08:52:41;45.60;;;19.60;;
54452;SDS011;40363;52.270;10.546;2024-03-07T08:55:08;53.25;;;21.52;;
54452;SDS011;40363;52.270;10.546;2024-03-07T08:57:36;59.03;;;19.63;;
54452;SDS011;40363;52.270;10.546;2024-03-07T09:00:03;53.00;;;19.75;;
54452;SDS011;40363;52.270;10.546;2024-03-07T09:02:33;51.90;;;18.42;;
54452;SDS011;40363;52.270;10.546;2024-03-07T09:05:01;53.15;;;18.75;;
54452;SDS011;40363;52.270;10.546;2024-03-07T09:07:28;56.05;;;20.58;;
54452;SDS011;40363;52.270;10.546;2024-03-07T09:09:56;54.30;;;20.15;;
54452;SDS011;40363;52.270;10.546;2024-03-07T09:12:23;44.38;;;18.05;;
54452;SDS011;40363;52.270;10.546;2024-03-07T09:14:50;57.90;;;19.83;;
54452;SDS011;40363;52.270;10.546;2024-03-07T09:17:17;45.85;;;18.48;;
54452;SDS011;40363;52.270;10.546;2024-03-07T09:19:44;49.78;;;18.77;;
54452;SDS011;40363;52.270;10.546;2024-03-07T09:22:11;52.65;;;19.02;;
54452;SDS011;40363;52.270;10.546;2024-03-07T09:24:38;46.40;;;18.88;;
54452;SDS011;40363;52.270;10.546;2024-03-07T09:27:05;48.75;;;19.27;;
54452;SDS011;40363;52.270;10.546;2024-03-07T09:29:33;48.85;;;19.65;;
54452;SDS011;40363;52.270;10.546;2024-03-07T09:31:59;48.33;;;18.08;;
54452;SDS011;40363;52.270;10.546;2024-03-07T09:34:27;53.63;;;19.33;;
54452;SDS011;40363;52.270;10.546;2024-03-07T09:36:55;46.05;;;18.30;;
54452;SDS011;40363;52.270;10.546;2024-03-07T09:39:25;49.22;;;20.33;;
54452;SDS011;40363;52.270;10.546;2024-03-07T09:41:52;49.13;;;19.17;;
54452;SDS011;40363;52.270;10.546;2024-03-07T09:44:20;44.45;;;17.30;;
54452;SDS011;40363;52.270;10.546;2024-03-07T09:46:52;43.55;;;19.05;;
54452;SDS011;40363;52.270;10.546;2024-03-07T09:49:21;53.65;;;19.25;;
54452;SDS011;40363;52.270;10.546;2024-03-07T09:51:49;47.85;;;17.55;;
54452;SDS011;40363;52.270;10.546;2024-03-07T09:54:19;49.28;;;17.48;;
54452;SDS011;40363;52.270;10.546;2024-03-07T09:56:48;48.50;;;17.33;;
54452;SDS011;40363;52.270;10.546;2024-03-07T09:59:15;46.42;;;18.58;;
54452;SDS011;40363;52.270;10.546;2024-03-07T10:01:45;45.33;;;18.73;;
54452;SDS011;40363;52.270;10.546;2024-03-07T10:04:16;48.15;;;19.85;;
54452;SDS011;40363;52.270;10.546;2024-03-07T10:06:49;53.50;;;18.20;;
54452;SDS011;40363;52.270;10.546;2024-03-07T10:09:18;43.33;;;15.82;;
54452;SDS011;40363;52.270;10.546;2024-03-07T10:11:56;41.20;;;17.17;;
54452;SDS011;40363;52.270;10.546;2024-03-07T10:14:23;43.72;;;16.65;;
54452;SDS011;40363;52.270;10.546;2024-03-07T10:16:50;43.60;;;16.80;;
54452;SDS011;40363;52.270;10.546;2024-03-07T10:19:16;36.55;;;16.17;;
54452;SDS011;40363;52.270;10.546;2024-03-07T10:21:43;36.20;;;15.75;;
54452;SDS011;40363;52.270;10.546;2024-03-07T10:24:09;35.33;;;14.75;;
54452;SDS011;40363;52.270;10.546;2024-03-07T10:26:37;36.08;;;15.50;;
54452;SDS011;40363;52.270;10.546;2024-03-07T10:29:07;38.78;;;15.82;;
54452;SDS011;40363;52.270;10.546;2024-03-07T10:31:34;35.75;;;14.55;;
54452;SDS011;40363;52.270;10.546;2024-03-07T10:34:02;40.17;;;15.13;;
54452;SDS011;40363;52.270;10.546;2024-03-07T10:36:29;36.78;;;15.95;;
54452;SDS011;40363;52.270;10.546;2024-03-07T10:38:57;32.75;;;14.07;;
54452;SDS011;40363;52.270;10.546;2024-03-07T10:41:36;33.60;;;14.18;;
54452;SDS011;40363;52.270;10.546;2024-03-07T10:44:12;39.15;;;15.05;;
54452;SDS011;40363;52.270;10.546;2024-03-07T10:46:46;39.38;;;16.73;;
54452;SDS011;40363;52.270;10.546;2024-03-07T10:49:19;31.08;;;14.20;;
54452;SDS011;40363;52.270;10.546;2024-03-07T10:51:50;39.92;;;15.02;;
54452;SDS011;40363;52.270;10.546;2024-03-07T10:54:25;36.42;;;14.35;;
54452;SDS011;40363;52.270;10.546;2024-03-07T10:57:05;31.02;;;12.82;;
54452;SDS011;40363;52.270;10.546;2024-03-07T10:59:49;37.70;;;14.02;;
54452;SDS011;40363;52.270;10.546;2024-03-07T11:02:29;38.38;;;13.60;;
54452;SDS011;40363;52.270;10.546;2024-03-07T11:04:59;31.48;;;12.25;;
54452;SDS011;40363;52.270;10.546;2024-03-07T11:07:27;27.90;;;13.13;;
54452;SDS011;40363;52.270;10.546;2024-03-07T11:09:55;35.78;;;13.35;;
54452;SDS011;40363;52.270;10.546;2024-03-07T11:12:24;31.77;;;15.00;;
54452;SDS011;40363;52.270;10.546;2024-03-07T11:14:54;29.30;;;13.20;;
54452;SDS011;40363;52.270;10.546;2024-03-07T11:17:25;31.63;;;14.43;;
54452;SDS011;40363;52.270;10.546;2024-03-07T11:19:55;34.13;;;14.20;;
54452;SDS011;40363;52.270;10.546;2024-03-07T11:22:45;35.13;;;14.00;;
54452;SDS011;40363;52.270;10.546;2024-03-07T11:25:12;31.25;;;13.98;;
54452;SDS011;40363;52.270;10.546;2024-03-07T11:27:39;28.73;;;15.32;;
54452;SDS011;40363;52.270;10.546;2024-03-07T11:30:18;28.40;;;13.27;;
54452;SDS011;40363;52.270;10.546;2024-03-07T11:32:46;35.72;;;14.35;;
54452;SDS011;40363;52.270;10.546;2024-03-07T11:35:14;27.02;;;12.45;;
54452;SDS011;40363;52.270;10.546;2024-03-07T11:37:47;30.25;;;12.60;;
54452;SDS011;40363;52.270;10.546;2024-03-07T11:43:14;30.52;;;12.00;;
54452;SDS011;40363;52.270;10.546;2024-03-07T11:45:42;30.70;;;13.30;;
54452;SDS011;40363;52.270;10.546;2024-03-07T11:48:17;27.95;;;13.13;;
54452;SDS011;40363;52.270;10.546;2024-03-07T11:50:46;24.67;;;13.20;;
54452;SDS011;40363;52.270;10.546;2024-03-07T11:53:14;26.92;;;12.05;;
54452;SDS011;40363;52.270;10.546;2024-03-07T11:55:40;28.70;;;12.95;;
54452;SDS011;40363;52.270;10.546;2024-03-07T11:58:10;27.45;;;11.63;;
54452;SDS011;40363;52.270;10.546;2024-03-07T12:00:39;27.10;;;10.70;;
54452;SDS011;40363;52.270;10.546;2024-03-07T12:03:10;23.45;;;10.80;;
54452;SDS011;40363;52.270;10.546;2024-03-07T12:05:39;26.02;;;11.82;;
54452;SDS011;40363;52.270;10.546;2024-03-07T12:08:07;21.90;;;11.20;;
54452;SDS011;40363;52.270;10.546;2024-03-07T12:10:34;26.98;;;11.45;;
54452;SDS011;40363;52.270;10.546;2024-03-07T12:13:04;24.20;;;11.23;;
54452;SDS011;40363;52.270;10.546;2024-03-07T12:15:32;26.63;;;11.75;;
54452;SDS011;40363;52.270;10.546;2024-03-07T12:18:02;26.35;;;10.50;;
54452;SDS011;40363;52.270;10.546;2024-03-07T12:20:34;24.17;;;10.88;;
54452;SDS011;40363;52.270;10.546;2024-03-07T12:23:02;25.23;;;11.95;;
54452;SDS011;40363;52.270;10.546;2024-03-07T12:25:30;22.15;;;10.57;;
54452;SDS011;40363;52.270;10.546;2024-03-07T12:28:03;23.80;;;11.45;;
54452;SDS011;40363;52.270;10.546;2024-03-07T12:30:48;26.95;;;11.27;;
54452;SDS011;40363;52.270;10.546;2024-03-07T12:33:20;23.02;;;11.32;;
54452;SDS011;40363;52.270;10.546;2024-03-07T12:35:48;28.60;;;11.32;;
54452;SDS011;40363;52.270;10.546;2024-03-07T12:38:17;19.10;;;10.02;;
54452;SDS011;40363;52.270;10.546;2024-03-07T12:40:44;25.15;;;11.68;;
54452;SDS011;40363;52.270;10.546;2024-03-07T12:43:12;22.20;;;10.60;;
54452;SDS011;40363;52.270;10.546;2024-03-07T12:45:42;22.40;;;10.85;;
54452;SDS011;40363;52.270;10.546;2024-03-07T12:48:10;22.52;;;10.85;;
54452;SDS011;40363;52.270;10.546;2024-03-07T12:50:40;28.85;;;11.68;;
54452;SDS011;40363;52.270;10.546;2024-03-07T12:53:07;23.52;;;10.30;;
54452;SDS011;40363;52.270;10.546;2024-03-07T12:55:41;26.60;;;11.57;;
54452;SDS011;40363;52.270;10.546;2024-03-07T12:58:21;20.48;;;10.63;;
54452;SDS011;40363;52.270;10.546;2024-03-07T13:00:50;23.58;;;12.10;;
54452;SDS011;40363;52.270;10.546;2024-03-07T13:03:24;24.55;;;10.32;;
54452;SDS011;40363;52.270;10.546;2024-03-07T13:05:56;26.95;;;12.43;;
54452;SDS011;40363;52.270;10.546;2024-03-07T13:08:29;27.15;;;10.45;;
54452;SDS011;40363;52.270;10.546;2024-03-07T13:10:56;27.83;;;10.60;;
54452;SDS011;40363;52.270;10.546;2024-03-07T13:13:24;26.98;;;10.50;;
54452;SDS011;40363;52.270;10.546;2024-03-07T13:15:51;19.48;;;10.57;;
54452;SDS011;40363;52.270;10.546;2024-03-07T13:18:19;24.63;;;9.40;;
54452;SDS011;40363;52.270;10.546;2024-03-07T13:20:46;21.30;;;10.38;;
54452;SDS011;40363;52.270;10.546;2024-03-07T13:23:14;21.80;;;11.23;;
54452;SDS011;40363;52.270;10.546;2024-03-07T13:25:41;23.90;;;10.13;;
54452;SDS011;40363;52.270;10.546;2024-03-07T13:28:09;20.45;;;9.95;;
54452;SDS011;40363;52.270;10.546;2024-03-07T13:30:39;24.65;;;11.50;;
54452;SDS011;40363;52.270;10.546;2024-03-07T13:33:06;25.08;;;10.90;;
54452;SDS011;40363;52.270;10.546;2024-03-07T13:35:37;21.33;;;11.55;;
54452;SDS011;40363;52.270;10.546;2024-03-07T13:38:04;22.70;;;10.60;;
54452;SDS011;40363;52.270;10.546;2024-03-07T13:40:33;21.63;;;10.25;;
54452;SDS011;40363;52.270;10.546;2024-03-07T13:43:03;18.20;;;8.48;;
54452;SDS011;40363;52.270;10.546;2024-03-07T13:45:31;16.88;;;9.18;;
54452;SDS011;40363;52.270;10.546;2024-03-07T13:48:04;16.08;;;8.85;;
54452;SDS011;40363;52.270;10.546;2024-03-07T13:50:32;18.08;;;8.88;;
54452;SDS011;40363;52.270;10.546;2024-03-07T13:53:00;14.95;;;8.45;;
54452;SDS011;40363;52.270;10.546;2024-03-07T13:55:45;18.73;;;9.48;;
54452;SDS011;40363;52.270;10.546;2024-03-07T13:58:21;14.40;;;9.35;;
54452;SDS011;40363;52.270;10.546;2024-03-07T14:01:03;22.85;;;8.77;;
54452;SDS011;40363;52.270;10.546;2024-03-07T14:03:54;17.15;;;8.95;;
54452;SDS011;40363;52.270;10.546;2024-03-07T14:06:41;13.40;;;8.40;;
54452;SDS011;40363;52.270;10.546;2024-03-07T14:09:24;16.38;;;8.77;;
54452;SDS011;40363;52.270;10.546;2024-03-07T14:12:21;15.25;;;8.45;;
54452;SDS011;40363;52.270;10.546;2024-03-07T14:15:27;16.90;;;7.93;;
54452;SDS011;40363;52.270;10.546;2024-03-07T14:18:39;15.55;;;8.82;;
54452;SDS011;40363;52.270;10.546;2024-03-07T14:21:34;14.52;;;9.40;;
54452;SDS011;40363;52.270;10.546;2024-03-07T14:24:21;14.32;;;8.23;;
54452;SDS011;40363;52.270;10.546;2024-03-07T14:27:15;21.08;;;11.00;;
54452;SDS011;40363;52.270;10.546;2024-03-07T14:29:54;21.75;;;10.70;;
54452;SDS011;40363;52.270;10.546;2024-03-07T14:32:47;17.75;;;8.77;;
54452;SDS011;40363;52.270;10.546;2024-03-07T14:35:17;16.67;;;8.50;;
54452;SDS011;40363;52.270;10.546;2024-03-07T14:37:52;15.48;;;8.85;;
54452;SDS011;40363;52.270;10.546;2024-03-07T14:40:22;19.02;;;7.78;;
54452;SDS011;40363;52.270;10.546;2024-03-07T14:42:50;15.43;;;8.75;;
54452;SDS011;40363;52.270;10.546;2024-03-07T14:45:23;16.05;;;8.98;;
54452;SDS011;40363;52.270;10.546;2024-03-07T14:47:54;19.58;;;8.70;;
54452;SDS011;40363;52.270;10.546;2024-03-07T14:50:21;18.58;;;9.38;;
54452;SDS011;40363;52.270;10.546;2024-03-07T14:52:52;14.32;;;8.48;;
54452;SDS011;40363;52.270;10.546;2024-03-07T14:55:19;17.60;;;8.90;;
54452;SDS011;40363;52.270;10.546;2024-03-07T14:57:47;12.75;;;7.78;;
54452;SDS011;40363;52.270;10.546;2024-03-07T15:00:13;17.33;;;7.97;;
54452;SDS011;40363;52.270;10.546;2024-03-07T15:02:55;14.35;;;7.97;;
54452;SDS011;40363;52.270;10.546;2024-03-07T15:05:23;18.83;;;8.23;;
54452;SDS011;40363;52.270;10.546;2024-03-07T15:07:51;15.25;;;9.07;;
54452;SDS011;40363;52.270;10.546;2024-03-07T15:10:26;17.90;;;8.75;;
54452;SDS011;40363;52.270;10.546;2024-03-07T15:12:57;15.15;;;8.60;;
54452;SDS011;40363;52.270;10.546;2024-03-07T15:15:39;15.68;;;8.48;;
54452;SDS011;40363;52.270;10.546;2024-03-07T15:18:16;15.55;;;8.80;;
54452;SDS011;40363;52.270;10.546;2024-03-07T15:21:05;19.40;;;9.43;;
54452;SDS011;40363;52.270;10.546;2024-03-07T15:23:36;14.63;;;8.70;;
54452;SDS011;40363;52.270;10.546;2024-03-07T15:26:15;15.95;;;8.30;;
54452;SDS011;40363;52.270;10.546;2024-03-07T15:28:43;18.60;;;9.15;;
54452;SDS011;40363;52.270;10.546;2024-03-07T15:31:13;13.95;;;7.20;;
54452;SDS011;40363;52.270;10.546;2024-03-07T15:33:45;12.60;;;7.40;;
54452;SDS011;40363;52.270;10.546;2024-03-07T15:36:16;18.23;;;8.27;;
54452;SDS011;40363;52.270;10.546;2024-03-07T15:38:48;13.15;;;8.38;;
54452;SDS011;40363;52.270;10.546;2024-03-07T15:41:17;11.70;;;7.85;;
54452;SDS011;40363;52.270;10.546;2024-03-07T15:43:44;28.17;;;9.85;;